Time;durP1;ratioP1;P1;durP2;ratioP2;P2;SDS_P1;SDS_P2;PMS_P1;PMS_P2;Temp;Humidity;BMP_temperature;BMP_pressure;BME280_temperature;BME280_humidity;BME280_pressure;Samples;Min_cycle;Max_cycle;Signal;HPM_P1;HPM_P2
2023/07/29 00:01:27;;;;;;;4.47;1.25;;;;;;;15.18;77.99;99324.00;5011254;28;20042;-47
2023/07/29 00:03:54;;;;;;;2.88;1.00;;;;;;;15.18;77.92;99331.56;5002805;28;20046;-46
2023/07/29 00:06:21;;;;;;;6.03;1.48;;;;;;;15.14;78.04;99333.59;5028265;28;20418;-47
2023/07/29 00:08:48;;;;;;;4.90;1.40;;;;;;;15.12;78.21;99336.78;5025504;28;20046;-46
2023/07/29 00:11:15;;;;;;;4.47;1.35;;;;;;;15.11;78.38;99326.84;5015416;28;20483;-46
2023/07/29 00:13:42;;;;;;;4.45;1.33;;;;;;;15.09;78.50;99326.44;5023903;28;20049;-46
2023/07/29 00:16:08;;;;;;;3.70;1.20;;;;;;;15.08;78.51;99330.44;5029016;28;20046;-45
2023/07/29 00:18:35;;;;;;;3.42;1.30;;;;;;;15.09;78.68;99320.88;5022023;28;20100;-46
2023/07/29 00:21:02;;;;;;;3.03;1.30;;;;;;;15.08;78.78;99324.88;5013938;28;20049;-48
2023/07/29 00:23:29;;;;;;;3.47;1.50;;;;;;;15.06;79.03;99327.25;5031655;28;20049;-47
2023/07/29 00:25:56;;;;;;;5.47;1.13;;;;;;;15.03;79.01;99318.94;5029872;28;20095;-48
2023/07/29 00:28:22;;;;;;;4.22;1.40;;;;;;;15.02;79.12;99306.19;5031632;28;20069;-46
2023/07/29 00:30:49;;;;;;;8.55;1.27;;;;;;;15.02;79.51;99314.56;5031521;28;20040;-46
2023/07/29 00:33:17;;;;;;;5.18;1.27;;;;;;;15.02;79.61;99315.34;5021102;28;20411;-46
2023/07/29 00:35:44;;;;;;;5.13;1.50;;;;;;;14.98;79.77;99319.38;5028015;28;20040;-50
2023/07/29 00:38:11;;;;;;;7.78;1.77;;;;;;;14.98;79.85;99317.38;5013825;28;20514;-46
2023/07/29 00:40:37;;;;;;;3.17;1.13;;;;;;;14.97;79.97;99318.59;5031679;28;20052;-46
2023/07/29 00:43:04;;;;;;;4.38;0.88;;;;;;;14.94;80.19;99321.38;5030588;28;20068;-49
2023/07/29 00:45:32;;;;;;;5.78;1.23;;;;;;;14.93;80.23;99317.78;5026847;28;20554;-46
2023/07/29 00:48:01;;;;;;;3.03;0.95;;;;;;;14.91;80.34;99323.00;5030617;28;20071;-46
2023/07/29 00:50:30;;;;;;;5.30;1.20;;;;;;;14.92;80.48;99321.81;5017931;28;20046;-47
2023/07/29 00:52:57;;;;;;;4.78;1.13;;;;;;;14.94;80.51;99324.97;5031252;28;20053;-47
2023/07/29 00:55:24;;;;;;;9.77;3.47;;;;;;;14.90;80.71;99318.66;5030440;28;20565;-47
2023/07/29 00:57:54;;;;;;;6.05;1.20;;;;;;;14.90;80.82;99315.06;5031161;28;20056;-46
2023/07/29 01:00:21;;;;;;;5.40;1.65;;;;;;;14.87;80.88;99318.66;5012627;28;20041;-47
2023/07/29 01:02:48;;;;;;;3.60;1.55;;;;;;;14.85;80.90;99316.25;5031069;28;20399;-46
2023/07/29 01:05:17;;;;;;;7.78;1.58;;;;;;;14.83;81.14;99313.09;5011548;28;20124;-49
2023/07/29 01:08:31;;;;;;;4.75;1.33;;;;;;;14.83;81.49;99310.31;5016910;28;20084;-47
2023/07/29 01:11:33;;;;;;;5.93;1.80;;;;;;;14.83;81.26;99307.53;5014558;28;20119;-46
2023/07/29 01:14:12;;;;;;;4.60;1.55;;;;;;;14.88;81.21;99312.66;5016266;28;20534;-48
2023/07/29 01:16:39;;;;;;;7.68;1.45;;;;;;;14.86;81.32;99309.50;5017745;28;20041;-46
2023/07/29 01:19:27;;;;;;;8.57;1.70;;;;;;;14.87;81.50;99302.75;5017677;28;20472;-46
2023/07/29 01:21:56;;;;;;;6.53;1.60;;;;;;;14.89;81.56;99311.47;5034090;28;20587;-51
2023/07/29 01:24:22;;;;;;;7.40;1.77;;;;;;;14.93;81.61;99312.22;5034182;28;20026;-46
2023/07/29 01:26:49;;;;;;;5.47;1.40;;;;;;;14.93;81.47;99312.22;5034892;28;20123;-49
2023/07/29 01:29:16;;;;;;;7.32;1.20;;;;;;;14.93;81.67;99305.88;5035117;28;20053;-46
2023/07/29 01:31:47;;;;;;;5.97;1.73;;;;;;;14.96;81.59;99303.06;5035046;28;20049;-48
2023/07/29 01:34:22;;;;;;;6.90;2.47;;;;;;;14.98;81.66;99303.47;5032712;28;20132;-50
2023/07/29 01:36:51;;;;;;;7.47;2.28;;;;;;;14.99;81.46;99296.66;5035023;28;20834;-49
2023/07/29 01:39:22;;;;;;;5.40;1.92;;;;;;;14.99;81.53;99305.03;5034986;28;20477;-45
2023/07/29 01:41:50;;;;;;;8.75;2.10;;;;;;;14.96;81.49;99305.84;5032875;28;20053;-47
2023/07/29 01:44:18;;;;;;;7.10;1.48;;;;;;;14.95;81.45;99301.50;5015572;28;20096;-46
2023/07/29 01:46:45;;;;;;;9.13;1.83;;;;;;;14.92;81.47;99299.50;5030194;28;20049;-48
2023/07/29 01:49:12;;;;;;;9.35;1.48;;;;;;;14.88;81.27;99289.59;5034607;28;20041;-47
2023/07/29 01:51:39;;;;;;;4.32;1.48;;;;;;;14.83;81.40;99282.44;5033735;28;20057;-46
2023/07/29 01:54:06;;;;;;;3.50;1.15;;;;;;;14.75;81.63;99294.84;5034402;28;20045;-47
2023/07/29 01:56:32;;;;;;;8.98;1.38;;;;;;;14.70;81.55;99289.72;5033495;28;20049;-46
2023/07/29 01:59:00;;;;;;;6.57;1.55;;;;;;;14.66;81.61;99290.94;5024832;28;20057;-47
2023/07/29 02:01:27;;;;;;;14.57;2.45;;;;;;;14.64;81.65;99288.53;5031153;28;20517;-45
2023/07/29 02:03:55;;;;;;;5.22;1.83;;;;;;;14.58;81.78;99295.75;5033695;28;20095;-46
2023/07/29 02:06:22;;;;;;;17.58;4.50;;;;;;;14.55;82.06;99296.56;5034033;28;20056;-48
2023/07/29 02:08:51;;;;;;;7.70;1.95;;;;;;;14.53;82.15;99298.97;5033251;28;20106;-48
2023/07/29 02:11:20;;;;;;;8.43;1.60;;;;;;;14.49;81.95;99296.19;5033923;28;20396;-49
2023/07/29 02:13:48;;;;;;;9.25;3.08;;;;;;;14.47;82.16;99300.59;5033878;28;20409;-48
2023/07/29 02:16:15;;;;;;;8.98;1.67;;;;;;;14.47;82.25;99300.59;5033831;28;20446;-49
2023/07/29 02:18:41;;;;;;;13.13;2.28;;;;;;;14.43;82.11;99305.38;5023375;28;20082;-48
2023/07/29 02:21:08;;;;;;;9.57;2.65;;;;;;;14.41;82.27;99313.34;5013710;28;20049;-46
2023/07/29 02:23:35;;;;;;;8.55;2.00;;;;;;;14.38;82.42;99320.53;5033393;28;20049;-46
2023/07/29 02:26:02;;;;;;;13.93;1.95;;;;;;;14.36;82.42;99311.78;5033182;28;20132;-46
2023/07/29 02:28:31;;;;;;;9.15;2.13;;;;;;;14.33;82.75;99312.59;5033932;28;20052;-47
2023/07/29 02:31:21;;;;;;;7.68;1.95;;;;;;;14.32;82.96;99304.66;5033807;28;20045;-46
2023/07/29 02:33:49;;;;;;;12.40;2.03;;;;;;;14.29;82.76;99311.81;5031826;28;20132;-47
2023/07/29 02:36:16;;;;;;;9.60;1.65;;;;;;;14.27;82.79;99307.84;5033852;28;20069;-46
2023/07/29 02:38:44;;;;;;;8.50;1.90;;;;;;;14.24;82.79;99308.66;5015577;28;20046;-47
2023/07/29 02:41:12;;;;;;;9.30;1.85;;;;;;;14.22;82.94;99306.25;5015008;28;20038;-48
2023/07/29 02:43:40;;;;;;;12.43;2.53;;;;;;;14.22;83.05;99302.66;5032617;28;20053;-46
2023/07/29 02:46:08;;;;;;;7.85;1.80;;;;;;;14.21;82.94;99306.66;5033614;28;20049;-46
2023/07/29 02:48:35;;;;;;;5.60;1.67;;;;;;;14.18;83.00;99305.47;5033282;28;20442;-46
2023/07/29 02:51:02;;;;;;;13.43;1.60;;;;;;;14.16;83.25;99302.31;5033490;28;20049;-47
2023/07/29 02:53:28;;;;;;;7.35;1.70;;;;;;;14.14;83.19;99304.69;5032217;28;20491;-48
2023/07/29 02:55:55;;;;;;;18.48;3.85;;;;;;;14.13;83.37;99299.53;5033648;28;20041;-48
2023/07/29 02:58:22;;;;;;;12.20;2.03;;;;;;;14.11;83.35;99299.16;5032234;28;20076;-47
2023/07/29 03:00:50;;;;;;;9.98;2.42;;;;;;;14.08;83.50;99295.19;5060480;23;20061;-46
2023/07/29 03:03:17;;;;;;;7.85;2.15;;;;;;;14.08;83.28;99295.19;5029680;28;20043;-46
2023/07/29 03:05:45;;;;;;;11.85;3.13;;;;;;;14.07;83.39;99290.81;5015857;28;20049;-46
2023/07/29 03:08:13;;;;;;;10.23;1.67;;;;;;;14.02;83.54;99294.81;5033176;28;20635;-48
2023/07/29 03:10:39;;;;;;;7.03;1.60;;;;;;;14.02;83.58;99286.47;5034386;28;20045;-48
2023/07/29 03:13:06;;;;;;;8.27;1.55;;;;;;;14.00;83.52;99282.50;5033475;28;20083;-47
2023/07/29 03:15:34;;;;;;;16.40;2.75;;;;;;;13.98;83.72;99284.88;5033137;28;20392;-47
2023/07/29 03:18:01;;;;;;;8.98;2.70;;;;;;;13.98;83.53;99285.66;5032769;28;20123;-46
2023/07/29 03:20:28;;;;;;;10.98;2.67;;;;;;;13.97;83.63;99283.31;5032946;28;20256;-47
2023/07/29 03:22:55;;;;;;;10.05;1.95;;;;;;;13.98;83.55;99284.88;5031639;28;20403;-47
2023/07/29 03:25:22;;;;;;;6.95;2.67;;;;;;;13.99;83.70;99278.13;5015052;28;20045;-47
2023/07/29 03:27:50;;;;;;;9.60;1.98;;;;;;;13.98;83.72;99282.09;5032735;28;20495;-46
2023/07/29 03:30:21;;;;;;;7.72;2.30;;;;;;;13.98;83.55;99276.53;5032788;28;20053;-46
2023/07/29 03:32:49;;;;;;;10.73;2.75;;;;;;;13.98;83.65;99279.31;5032320;28;20052;-49
2023/07/29 03:35:16;;;;;;;8.98;2.38;;;;;;;13.94;83.68;99282.13;5032137;28;20046;-48
2023/07/29 03:37:44;;;;;;;8.35;1.85;;;;;;;13.94;83.51;99289.66;5032754;28;20085;-46
2023/07/29 03:40:11;;;;;;;10.80;1.92;;;;;;;13.91;83.52;99284.91;5032282;28;20510;-47
2023/07/29 03:42:37;;;;;;;12.52;2.28;;;;;;;13.88;83.50;99283.72;5032500;28;20068;-47
2023/07/29 03:45:05;;;;;;;10.77;2.35;;;;;;;13.86;83.61;99282.53;5030186;28;20111;-48
2023/07/29 03:47:31;;;;;;;14.35;2.30;;;;;;;13.84;83.59;99287.72;5032626;28;20052;-46
2023/07/29 03:49:58;;;;;;;11.95;2.15;;;;;;;13.83;83.36;99281.34;5031753;28;20096;-47
2023/07/29 03:52:25;;;;;;;18.05;2.10;;;;;;;13.82;83.43;99276.97;5032328;28;20049;-46
2023/07/29 03:54:52;;;;;;;6.72;1.70;;;;;;;13.80;83.20;99278.56;5031022;28;20052;-46
2023/07/29 03:57:19;;;;;;;7.10;1.85;;;;;;;13.79;83.13;99283.34;5032199;28;20038;-45
2023/07/29 03:59:46;;;;;;;8.27;2.35;;;;;;;13.78;83.18;99289.31;5032064;28;20392;-47
2023/07/29 04:02:14;;;;;;;9.18;2.13;;;;;;;13.79;83.17;99286.13;5031755;28;20705;-47
2023/07/29 04:04:42;;;;;;;9.88;3.83;;;;;;;13.76;83.00;99281.38;5030976;28;20037;-45
2023/07/29 04:07:09;;;;;;;6.60;1.98;;;;;;;13.71;83.09;99286.56;5031779;28;20049;-47
2023/07/29 04:09:36;;;;;;;7.63;1.98;;;;;;;13.68;83.14;99285.38;5014370;28;20038;-46
2023/07/29 04:12:03;;;;;;;15.00;1.80;;;;;;;13.68;82.98;99285.38;5031547;28;20060;-46
2023/07/29 04:14:30;;;;;;;10.48;2.55;;;;;;;13.68;82.77;99290.16;5030336;28;20118;-46
2023/07/29 04:16:57;;;;;;;11.98;2.13;;;;;;;13.67;83.03;99281.00;5014422;28;20041;-46
2023/07/29 04:19:24;;;;;;;10.85;2.47;;;;;;;13.67;82.94;99291.34;5031669;28;20045;-47
2023/07/29 04:21:51;;;;;;;7.20;2.00;;;;;;;13.63;83.08;99290.56;5031777;28;20111;-46
2023/07/29 04:24:20;;;;;;;10.00;2.22;;;;;;;13.62;83.05;99286.97;5030269;28;20045;-47
2023/07/29 04:26:46;;;;;;;13.90;2.10;;;;;;;13.60;82.80;99292.16;5031778;28;20494;-49
2023/07/29 04:29:13;;;;;;;18.83;3.03;;;;;;;13.58;82.86;99283.41;5031583;28;20053;-46
2023/07/29 04:31:40;;;;;;;6.30;1.90;;;;;;;13.56;82.97;99280.22;5031703;28;20048;-51
2023/07/29 04:34:07;;;;;;;11.55;2.58;;;;;;;13.57;82.88;99292.16;5030278;28;20044;-48
2023/07/29 04:36:34;;;;;;;12.35;3.08;;;;;;;13.55;82.68;99280.66;5031791;28;20076;-48
2023/07/29 04:39:02;;;;;;;6.70;1.55;;;;;;;13.54;82.92;99281.81;5031412;28;20095;-47
2023/07/29 04:41:29;;;;;;;11.63;1.95;;;;;;;13.52;82.59;99284.22;5031205;28;20481;-46
2023/07/29 04:43:57;;;;;;;9.20;2.60;;;;;;;13.50;82.61;99300.53;5030115;28;20077;-48
2023/07/29 04:46:24;;;;;;;16.08;3.00;;;;;;;13.48;82.66;99306.47;5031518;28;20104;-46
2023/07/29 04:48:50;;;;;;;10.88;2.78;;;;;;;13.49;82.75;99304.47;5031092;28;20053;-48
2023/07/29 04:51:17;;;;;;;11.80;2.03;;;;;;;13.46;82.93;99297.72;5031232;28;20068;-48
2023/07/29 04:53:44;;;;;;;13.43;1.98;;;;;;;13.45;82.86;99300.94;5029999;28;20100;-46
2023/07/29 04:56:11;;;;;;;11.27;1.77;;;;;;;13.46;82.76;99311.63;5030990;28;20046;-47
2023/07/29 04:58:38;;;;;;;8.23;3.17;;;;;;;13.44;82.96;99305.69;5031081;28;20087;-47
2023/07/29 05:01:05;;;;;;;9.50;1.92;;;;;;;13.44;82.80;99305.69;5030714;28;20045;-48
2023/07/29 05:03:32;;;;;;;6.15;1.38;;;;;;;13.44;82.67;99311.25;5031159;28;20034;-46
2023/07/29 05:05:59;;;;;;;11.18;2.45;;;;;;;13.43;82.74;99304.09;5030107;28;20052;-48
2023/07/29 05:08:27;;;;;;;11.43;1.67;;;;;;;13.42;82.71;99291.41;5031203;28;20077;-46
2023/07/29 05:10:57;;;;;;;9.80;2.28;;;;;;;13.42;82.73;99305.31;5030809;28;20087;-48
2023/07/29 05:13:23;;;;;;;12.90;2.55;;;;;;;13.42;82.86;99294.19;5031075;28;20137;-47
2023/07/29 05:15:50;;;;;;;13.23;2.72;;;;;;;13.42;82.63;99292.16;5029494;28;20046;-53
2023/07/29 05:18:18;;;;;;;8.98;2.35;;;;;;;13.45;82.60;99292.59;5031322;28;20050;-46
2023/07/29 05:20:45;;;;;;;16.73;2.22;;;;;;;13.46;82.68;99299.72;5030951;28;20052;-46
2023/07/29 05:23:11;;;;;;;13.27;2.97;;;;;;;13.45;82.77;99298.91;5031168;28;20048;-49
2023/07/29 05:25:38;;;;;;;6.28;1.65;;;;;;;13.46;82.55;99303.28;5012050;28;20518;-49
2023/07/29 05:28:08;;;;;;;9.95;2.70;;;;;;;13.47;82.62;99296.56;5031098;28;20450;-49
2023/07/29 05:30:37;;;;;;;8.38;2.10;;;;;;;13.49;82.78;99296.13;5030770;28;20056;-47
2023/07/29 05:33:04;;;;;;;12.73;2.00;;;;;;;13.50;82.43;99287.41;5030880;28;20063;-46
2023/07/29 05:35:31;;;;;;;15.50;4.25;;;;;;;13.52;82.40;99279.47;5029567;28;20065;-45
2023/07/29 05:37:58;;;;;;;7.63;2.08;;;;;;;13.53;82.29;99277.47;5031116;28;20042;-46
2023/07/29 05:40:25;;;;;;;10.45;2.65;;;;;;;13.54;82.36;99276.25;5030600;28;20503;-49
2023/07/29 05:42:52;;;;;;;14.02;3.28;;;;;;;13.53;82.41;99280.25;5013171;28;20048;-45
2023/07/29 05:45:19;;;;;;;11.38;2.90;;;;;;;13.55;82.43;99273.09;5029350;28;20045;-47
2023/07/29 05:47:45;;;;;;;8.70;2.42;;;;;;;13.56;82.32;99268.31;5030949;28;20101;-47
2023/07/29 05:50:12;;;;;;;9.30;1.95;;;;;;;13.58;82.52;99272.28;5030393;28;20045;-47
2023/07/29 05:52:39;;;;;;;16.20;2.33;;;;;;;13.57;82.25;99276.28;5030612;28;20107;-48
2023/07/29 05:55:06;;;;;;;12.35;2.78;;;;;;;13.58;82.31;99272.28;5029091;28;20048;-48
2023/07/29 05:57:33;;;;;;;16.45;2.28;;;;;;;13.57;82.41;99265.16;5030878;28;20045;-48
2023/07/29 06:00:00;;;;;;;9.68;1.63;;;;;;;13.57;82.34;99275.47;5030653;28;20120;-50
2023/07/29 06:02:27;;;;;;;11.70;1.83;;;;;;;13.59;82.33;99268.31;5022868;28;20057;-47
2023/07/29 06:04:53;;;;;;;8.85;2.28;;;;;;;13.60;82.25;99271.88;5011939;28;20128;-51
2023/07/29 06:07:20;;;;;;;6.40;1.58;;;;;;;13.63;82.01;99258.00;5030877;28;20046;-46
2023/07/29 06:09:47;;;;;;;10.00;1.70;;;;;;;13.68;82.16;99262.34;5016430;28;20052;-47
2023/07/29 06:12:14;;;;;;;15.38;4.07;;;;;;;13.75;82.22;99253.97;5034024;28;20553;-47
2023/07/29 06:14:41;;;;;;;12.10;3.30;;;;;;;13.81;81.90;99261.50;5032691;28;20041;-47
2023/07/29 06:17:08;;;;;;;6.57;1.98;;;;;;;13.84;81.76;99271.84;5034363;28;20041;-49
2023/07/29 06:19:34;;;;;;;9.90;2.17;;;;;;;13.83;81.91;99267.44;5034078;28;20140;-46
2023/07/29 06:22:01;;;;;;;6.53;1.48;;;;;;;13.84;81.76;99269.03;5016366;28;20051;-46
2023/07/29 06:24:28;;;;;;;17.15;2.65;;;;;;;13.88;81.86;99275.38;5032351;28;20058;-47
2023/07/29 06:26:55;;;;;;;9.43;2.05;;;;;;;13.92;81.90;99281.75;5034213;28;20049;-48
2023/07/29 06:29:22;;;;;;;11.38;1.65;;;;;;;13.97;81.83;99272.97;5033948;28;20103;-48
2023/07/29 06:31:49;;;;;;;8.32;2.13;;;;;;;14.01;81.70;99279.31;5033934;28;20045;-47
2023/07/29 06:34:15;;;;;;;12.15;2.67;;;;;;;14.04;81.76;99278.50;5032962;28;20060;-52
2023/07/29 06:36:42;;;;;;;12.27;2.15;;;;;;;14.09;81.61;99284.81;5016117;28;20518;-49
2023/07/29 06:39:09;;;;;;;7.38;2.28;;;;;;;14.12;81.59;99272.88;5033432;28;20045;-46
2023/07/29 06:41:36;;;;;;;14.38;1.67;;;;;;;14.18;81.58;99276.84;5033654;28;20052;-46
2023/07/29 06:44:03;;;;;;;12.10;2.10;;;;;;;14.22;81.36;99283.19;5033157;28;20479;-46
2023/07/29 06:46:30;;;;;;;8.23;1.95;;;;;;;14.25;81.37;99276.81;5032203;28;20053;-48
2023/07/29 06:48:57;;;;;;;13.10;2.17;;;;;;;14.28;81.36;99270.44;5033632;28;20087;-47
2023/07/29 06:51:24;;;;;;;11.15;2.30;;;;;;;14.31;81.07;99287.16;5033473;28;20091;-48
2023/07/29 06:53:51;;;;;;;7.85;2.03;;;;;;;14.36;80.86;99291.50;5033831;28;20406;-46
2023/07/29 06:56:17;;;;;;;8.52;1.90;;;;;;;14.40;80.77;99290.28;5032047;28;20045;-48
2023/07/29 06:58:44;;;;;;;13.45;2.55;;;;;;;14.44;80.64;99284.69;5033474;28;20100;-48
2023/07/29 07:01:11;;;;;;;7.53;2.08;;;;;;;14.46;80.67;99285.06;5033022;28;20053;-46
2023/07/29 07:03:38;;;;;;;8.93;1.73;;;;;;;14.50;80.69;99305.34;5033146;28;20076;-48
2023/07/29 07:06:05;;;;;;;9.50;2.78;;;;;;;14.52;80.53;99305.72;5030728;28;20092;-48
2023/07/29 07:08:32;;;;;;;7.50;1.48;;;;;;;14.56;80.61;99298.16;5016071;28;20045;-48
2023/07/29 07:10:59;;;;;;;8.93;1.52;;;;;;;14.61;80.58;99292.94;5032923;28;20069;-47
2023/07/29 07:13:26;;;;;;;7.88;1.63;;;;;;;14.68;80.48;99297.69;5034833;28;20533;-46
2023/07/29 07:15:57;;;;;;;5.38;1.63;;;;;;;14.72;80.17;99292.88;5032214;28;20118;-51
2023/07/29 07:18:24;;;;;;;10.73;2.22;;;;;;;14.78;80.40;99293.22;5032644;28;20041;-52
2023/07/29 07:20:51;;;;;;;12.88;3.17;;;;;;;14.83;80.19;99278.88;5032708;28;20045;-50
2023/07/29 07:23:18;;;;;;;7.32;1.67;;;;;;;14.89;80.02;99283.59;5015359;28;20037;-50
2023/07/29 07:25:45;;;;;;;7.07;2.63;;;;;;;14.92;79.90;99293.94;5030548;28;20073;-46
2023/07/29 07:28:12;;;;;;;9.57;1.60;;;;;;;14.99;80.10;99293.88;5032919;28;20041;-49
2023/07/29 07:30:43;;;;;;;8.30;1.55;;;;;;;15.05;79.69;99289.47;5032513;28;20056;-48
2023/07/29 07:33:10;;;;;;;8.55;1.67;;;;;;;15.09;79.81;99293.00;5032776;28;20045;-47
2023/07/29 07:35:37;;;;;;;9.45;2.45;;;;;;;15.22;79.90;99296.09;5031483;28;20049;-48
2023/07/29 07:38:07;;;;;;;4.93;1.60;;;;;;;15.32;80.02;99300.78;5029349;28;20045;-50
2023/07/29 07:40:34;;;;;;;10.80;3.38;;;;;;;15.47;80.31;99296.69;5032088;28;20553;-47
2023/07/29 07:43:01;;;;;;;16.15;2.00;;;;;;;15.57;80.02;99306.94;5031147;28;20033;-48
2023/07/29 07:45:28;;;;;;;9.18;2.25;;;;;;;15.68;80.03;99295.66;5032000;28;20061;-50
2023/07/29 07:47:56;;;;;;;11.13;2.30;;;;;;;15.82;80.40;99292.75;5026595;28;20488;-48
2023/07/29 07:50:23;;;;;;;8.73;1.80;;;;;;;15.97;80.27;99296.94;5030679;28;20052;-49
2023/07/29 07:52:51;;;;;;;8.82;1.73;;;;;;;16.11;80.41;99307.94;5030612;28;20416;-47
2023/07/29 07:55:17;;;;;;;9.73;1.70;;;;;;;16.29;80.47;99297.34;5032316;28;20041;-48
2023/07/29 07:57:44;;;;;;;7.38;1.80;;;;;;;16.45;79.60;99322.69;5031699;28;20061;-46
2023/07/29 08:00:11;;;;;;;6.60;1.77;;;;;;;16.60;79.93;99322.53;5007829;28;20045;-47
2023/07/29 08:02:38;;;;;;;10.48;1.60;;;;;;;16.79;79.58;99316.25;5022354;28;20057;-48
2023/07/29 08:05:06;;;;;;;7.88;3.42;;;;;;;17.01;79.55;99321.13;5032033;28;20052;-48
2023/07/29 08:07:32;;;;;;;7.25;2.30;;;;;;;17.36;79.80;99316.97;5032142;28;20045;-51
2023/07/29 08:09:59;;;;;;;7.18;1.42;;;;;;;17.82;79.30;99334.97;5018928;28;20080;-51
2023/07/29 08:12:27;;;;;;;7.82;2.35;;;;;;;18.29;77.84;99319.66;5030630;28;20045;-48
2023/07/29 08:14:53;;;;;;;9.52;2.08;;;;;;;18.83;76.19;99332.09;5028104;28;20049;-49
2023/07/29 08:17:20;;;;;;;7.72;1.40;;;;;;;19.44;74.11;99334.28;5028117;28;20049;-44
2023/07/29 08:19:47;;;;;;;10.63;1.80;;;;;;;20.02;71.96;99329.53;5030193;28;20132;-49
2023/07/29 08:22:14;;;;;;;6.65;1.73;;;;;;;20.64;69.49;99331.00;5030288;28;20128;-46
2023/07/29 08:24:43;;;;;;;9.70;1.83;;;;;;;21.20;66.61;99337.72;5017639;28;20083;-48
2023/07/29 08:27:10;;;;;;;8.88;1.92;;;;;;;21.63;64.46;99331.44;5011266;28;20042;-48
2023/07/29 08:29:36;;;;;;;12.20;1.85;;;;;;;22.03;62.72;99331.69;5030609;28;20045;-47
2023/07/29 08:32:03;;;;;;;6.90;1.65;;;;;;;22.29;60.54;99344.41;5030895;28;20499;-48
2023/07/29 08:34:30;;;;;;;6.15;1.10;;;;;;;22.53;59.34;99335.53;5031761;28;20073;-49
2023/07/29 08:36:57;;;;;;;4.18;1.20;;;;;;;22.85;57.86;99349.19;5013859;28;20082;-49
2023/07/29 08:39:24;;;;;;;6.22;1.30;;;;;;;23.07;56.79;99357.63;5030156;28;20387;-49
2023/07/29 08:41:58;;;;;;;12.73;1.52;;;;;;;23.33;55.89;99359.78;5031526;28;20056;-47
2023/07/29 08:44:29;;;;;;;8.93;1.58;;;;;;;23.63;54.94;99356.16;5031596;28;20037;-49
2023/07/29 08:46:57;;;;;;;;;;;;;;;23.63;55.64;99356.16;5031764;28;20057;-49
2023/07/29 08:49:26;;;;;;;6.80;1.75;;;;;;;23.73;54.29;99351.28;5030015;28;19975;-46
2023/07/29 08:51:54;;;;;;;5.03;1.13;;;;;;;23.98;53.34;99348.19;5031224;28;20042;-47
2023/07/29 08:54:21;;;;;;;4.70;1.48;;;;;;;24.19;52.77;99357.81;5031427;28;20064;-48
2023/07/29 08:56:49;;;;;;;8.27;2.00;;;;;;;24.33;51.63;99362.81;5030914;28;20128;-48
2023/07/29 08:59:17;;;;;;;8.55;1.88;;;;;;;23.90;51.43;99358.25;5012484;28;20169;-46
2023/07/29 09:01:44;;;;;;;5.45;1.30;;;;;;;23.91;51.58;99353.34;5029979;28;20726;-52
2023/07/29 09:04:10;;;;;;;9.35;1.58;;;;;;;24.16;51.02;99358.75;5027672;28;20383;-51
2023/07/29 09:06:39;;;;;;;4.43;1.33;;;;;;;24.52;50.62;99358.72;5031474;28;20046;-49
2023/07/29 09:09:08;;;;;;;8.93;2.38;;;;;;;24.88;49.89;99362.78;5028019;28;20053;-47
2023/07/29 09:11:35;;;;;;;6.95;1.40;;;;;;;25.15;49.20;99365.53;5031086;28;20060;-47
2023/07/29 09:14:02;;;;;;;8.52;1.63;;;;;;;25.14;48.67;99369.63;5026669;28;20103;-49
2023/07/29 09:16:29;;;;;;;8.23;1.83;;;;;;;25.27;48.42;99378.69;4996927;28;20061;-51
2023/07/29 09:19:01;;;;;;;8.82;1.88;;;;;;;25.44;48.29;99375.00;5024103;28;20419;-50
2023/07/29 09:21:28;;;;;;;6.82;1.83;;;;;;;25.74;47.50;99373.13;5030078;28;20056;-49
2023/07/29 09:23:56;;;;;;;5.10;1.40;;;;;;;25.93;46.84;99374.59;5024871;28;20057;-50
2023/07/29 09:26:27;;;;;;;6.32;1.48;;;;;;;25.97;46.15;99374.44;5029801;28;20072;-50
2023/07/29 09:28:56;;;;;;;7.75;1.77;;;;;;;26.02;45.77;99366.03;5030770;28;20136;-47
2023/07/29 09:31:27;;;;;;;5.88;1.20;;;;;;;25.83;45.21;99361.75;5030702;28;20042;-47
2023/07/29 09:33:59;;;;;;;10.15;1.70;;;;;;;25.85;45.86;99378.28;5029419;28;20073;-49
2023/07/29 09:36:27;;;;;;;6.70;1.63;;;;;;;25.17;45.55;99375.13;5016934;28;20121;-47
2023/07/29 09:38:54;;;;;;;6.80;1.23;;;;;;;24.15;47.06;99371.31;5025382;28;20406;-43
2023/07/29 09:41:26;;;;;;;5.68;1.30;;;;;;;23.43;48.46;99367.06;5013668;28;20049;-45
2023/07/29 09:44:02;;;;;;;5.53;1.63;;;;;;;22.83;49.24;99371.47;5031196;28;20045;-46
2023/07/29 09:46:34;;;;;;;9.07;1.95;;;;;;;22.17;51.13;99376.28;5034244;28;20073;-44
2023/07/29 09:49:06;;;;;;;4.90;1.38;;;;;;;21.74;52.12;99365.66;5021864;28;20495;-50
2023/07/29 09:51:39;;;;;;;6.65;1.77;;;;;;;21.64;53.24;99361.19;5034494;28;20049;-50
2023/07/29 09:54:06;;;;;;;9.45;1.60;;;;;;;21.74;52.69;99367.69;5029702;28;20053;-45
2023/07/29 09:56:33;;;;;;;7.18;1.20;;;;;;;21.51;53.38;99368.88;5027460;28;20141;-46
2023/07/29 09:59:01;;;;;;;6.75;1.65;;;;;;;21.08;54.88;99377.88;5024740;28;20124;-48
2023/07/29 10:01:31;;;;;;;8.80;2.05;;;;;;;20.49;56.85;99372.03;5028970;28;22000;-51
2023/07/29 10:04:01;;;;;;;9.35;2.20;;;;;;;20.01;58.36;99370.88;5019002;28;20196;-47
2023/07/29 10:06:29;;;;;;;4.13;1.20;;;;;;;19.73;59.50;99374.44;5027942;28;20049;-52
2023/07/29 10:08:58;;;;;;;8.68;1.60;;;;;;;19.39;60.61;99380.50;5030608;28;20045;-46
2023/07/29 10:11:25;;;;;;;5.80;1.75;;;;;;;19.03;61.43;99378.94;5028880;28;20050;-48
2023/07/29 10:13:53;;;;;;;7.28;1.95;;;;;;;19.05;62.93;99382.09;5019634;28;20045;-47
2023/07/29 10:16:36;;;;;;;4.88;1.80;;;;;;;19.48;61.80;99379.91;5017416;28;20065;-46
2023/07/29 10:19:04;;;;;;;10.85;2.08;;;;;;;19.56;62.25;99388.94;5028387;28;20065;-45
2023/07/29 10:21:32;;;;;;;8.75;1.40;;;;;;;20.58;61.22;99389.03;5014918;28;20049;-45
2023/07/29 10:24:05;;;;;;;8.07;1.55;;;;;;;21.79;58.39;99390.44;5015328;28;20124;-49
2023/07/29 10:26:33;;;;;;;6.88;1.33;;;;;;;22.41;57.67;99387.91;4998448;28;20151;-49
2023/07/29 10:29:04;;;;;;;6.88;2.20;;;;;;;22.47;57.24;99393.75;5005148;28;20491;-45
2023/07/29 10:31:36;;;;;;;8.10;1.40;;;;;;;22.06;57.87;99384.31;5023556;28;20446;-45
2023/07/29 10:34:03;;;;;;;10.68;1.52;;;;;;;21.51;58.84;99380.13;5023177;28;20056;-46
2023/07/29 10:36:30;;;;;;;7.70;1.05;;;;;;;20.87;59.24;99381.31;5014383;28;20085;-46
2023/07/29 10:38:57;;;;;;;4.63;1.45;;;;;;;20.37;59.67;99382.00;5011094;28;20068;-48
2023/07/29 10:41:56;;;;;;;5.43;1.42;;;;;;;19.99;60.29;99384.59;5033253;28;20037;-45
2023/07/29 10:44:46;;;;;;;10.68;1.70;;;;;;;19.60;60.98;99384.00;5014096;28;20445;-47
2023/07/29 10:47:23;;;;;;;5.85;1.25;;;;;;;19.38;61.55;99381.72;5026671;28;20505;-45
2023/07/29 10:49:56;;;;;;;7.75;1.45;;;;;;;19.30;61.73;99383.09;5028883;28;20057;-46
2023/07/29 10:52:30;;;;;;;10.20;3.92;;;;;;;19.18;62.18;99380.19;5031601;28;20059;-45
2023/07/29 10:54:58;;;;;;;4.63;1.27;;;;;;;19.07;62.84;99380.44;5030104;28;20041;-46
2023/07/29 10:57:35;;;;;;;6.03;1.27;;;;;;;19.15;62.88;99387.47;5022148;28;20149;-47
2023/07/29 11:00:04;;;;;;;9.23;1.33;;;;;;;19.26;62.66;99392.81;5018813;28;20391;-45
2023/07/29 11:02:35;;;;;;;10.60;1.50;;;;;;;19.41;62.21;99389.28;5026605;28;20049;-47
2023/07/29 11:05:08;;;;;;;3.75;1.65;;;;;;;19.54;62.29;99399.81;5030789;28;20788;-47
2023/07/29 11:07:49;;;;;;;7.13;1.50;;;;;;;19.74;61.74;99406.94;5001115;28;20049;-46
2023/07/29 11:10:17;;;;;;;14.23;1.70;;;;;;;19.98;61.48;99411.13;5038765;28;20120;-45
2023/07/29 11:12:47;;;;;;;3.92;0.55;;;;;;;19.98;61.15;99405.50;5031588;28;20053;-46
2023/07/29 11:15:18;;;;;;;5.75;0.73;;;;;;;19.84;61.12;99405.88;5021992;28;20042;-47
2023/07/29 11:17:53;;;;;;;1.77;0.63;;;;;;;19.91;61.00;99411.28;5023331;28;20100;-46
2023/07/29 11:20:26;;;;;;;2.15;0.65;;;;;;;20.15;60.33;99409.06;5021131;28;20041;-46
2023/07/29 11:22:54;;;;;;;1.88;0.30;;;;;;;20.22;59.74;99408.88;5030996;28;20124;-46
2023/07/29 11:25:23;;;;;;;4.72;0.70;;;;;;;20.29;59.80;99416.34;5027784;28;20053;-48
2023/07/29 11:27:55;;;;;;;3.28;0.30;;;;;;;20.22;59.62;99410.91;5028061;28;20045;-47
2023/07/29 11:30:27;;;;;;;1.83;0.70;;;;;;;20.18;60.09;99418.63;5032812;28;20741;-46
2023/07/29 11:32:55;;;;;;;;;;;;;;;20.11;60.25;99407.59;5029818;28;20392;-46
2023/07/29 11:35:22;;;;;;;3.45;0.57;;;;;;;20.18;60.56;99411.00;5024956;28;20425;-48
2023/07/29 11:37:51;;;;;;;2.83;0.73;;;;;;;20.24;60.80;99414.09;5023561;28;20415;-47